Niobe, North Dakota
Current Conditions -  °F | °C
As of 12:55 PM on Friday 31 Oct 2014 (Local Time) from K08D Reporting Station
Clear Clear  
Wind Chill: 19°   Ceiling: Unl
Heat Index: 32°   Visibility: 10mi
Dew Point: 23°   Wind: 25mph
Humidity: 69%   Direction: 160°SSE
Pressure: 30.23"   Gusts: 36mph
Location:  48.6651°N, 102.033°W
Report Text: K08D 311755Z AUTO 16022G31KT 10SM CLR 00/M05 A3023 RMK AO2
Loading
Personal Weather Stations






























Interactive Weather Map
Tropical Storm Tracking
New forecast layout! Learn more

10-Day Weather Forecast

Advertisements
Track Severe Weather on mobile